Time;durP1;ratioP1;P1;durP2;ratioP2;P2;SDS_P1;SDS_P2;PMS_P1;PMS_P2;Temp;Humidity;BMP_temperature;BMP_pressure;BME280_temperature;BME280_humidity;BME280_pressure;Samples;Min_cycle;Max_cycle;Signal;HPM_P1;HPM_P2
2021/10/03 00:00:09;;;;;;;23.40;11.20;;;;;;;9.99;77.01;99395.30;113383;1195;107505;-76
2021/10/03 00:02:58;;;;;;;22.60;11.60;;;;;;;9.99;77.08;99390.38;113408;1195;95054;-74
2021/10/03 00:05:27;;;;;;;27.00;11.60;;;;;;;10.03;77.31;99389.05;113421;1193;95054;-74
2021/10/03 00:07:59;;;;;;;23.30;12.30;;;;;;;10.05;77.31;99383.94;113203;1190;111198;-74
2021/10/03 00:10:30;;;;;;;23.30;11.90;;;;;;;10.08;77.36;99380.92;113327;1196;97680;-72
2021/10/03 00:13:03;;;;;;;22.00;11.20;;;;;;;10.10;77.44;99380.06;113363;1193;107534;-73
2021/10/03 00:15:36;;;;;;;22.90;11.00;;;;;;;10.12;77.43;99379.73;113160;1195;97642;-75
2021/10/03 00:18:07;;;;;;;23.10;11.00;;;;;;;10.16;77.23;99383.10;113217;1194;97583;-74
2021/10/03 00:20:39;;;;;;;24.70;11.10;;;;;;;10.19;77.29;99389.40;113279;1195;111180;-73
2021/10/03 00:23:09;;;;;;;20.90;11.20;;;;;;;10.21;77.27;99388.89;113284;1193;98725;-73
2021/10/03 00:25:40;;;;;;;22.90;10.80;;;;;;;10.23;77.11;99393.39;113394;1193;109009;-74
2021/10/03 00:28:10;;;;;;;24.40;12.10;;;;;;;10.25;77.04;99387.62;113363;1195;98057;-75
2021/10/03 00:30:41;;;;;;;25.30;11.80;;;;;;;10.26;77.02;99387.17;113383;1195;97641;-75
2021/10/03 00:33:12;;;;;;;22.50;11.10;;;;;;;10.26;77.02;99381.85;113318;1196;111182;-74
2021/10/03 00:35:44;;;;;;;26.20;12.30;;;;;;;10.26;76.98;99377.25;113385;1196;97699;-75
2021/10/03 00:38:13;;;;;;;23.00;11.50;;;;;;;10.27;77.08;99377.20;113343;1195;107526;-75
2021/10/03 00:40:47;;;;;;;22.40;11.00;;;;;;;10.26;77.03;99376.73;113397;1196;97562;-74
2021/10/03 00:43:16;;;;;;;24.30;12.20;;;;;;;10.27;77.15;99376.48;113368;1196;97992;-74
2021/10/03 00:45:45;;;;;;;25.50;12.90;;;;;;;10.27;77.14;99379.65;113297;1196;110309;-75
2021/10/03 00:48:13;;;;;;;24.50;12.50;;;;;;;10.28;77.16;99376.90;113100;1196;97502;-74
2021/10/03 00:50:46;;;;;;;25.20;12.70;;;;;;;10.29;77.20;99379.38;113334;1196;107531;-73
2021/10/03 00:53:17;;;;;;;24.40;13.80;;;;;;;10.30;77.25;99382.86;113336;1195;97582;-74
2021/10/03 00:55:45;;;;;;;22.60;11.70;;;;;;;10.28;77.22;99380.13;113418;1196;97662;-75
2021/10/03 00:58:16;;;;;;;23.00;12.10;;;;;;;10.27;77.29;99378.77;113390;1196;110814;-75
2021/10/03 01:00:44;;;;;;;25.60;11.90;;;;;;;10.24;77.27;99377.73;113407;1195;97539;-75
2021/10/03 01:03:15;;;;;;;23.00;11.50;;;;;;;10.21;77.27;99378.45;113301;1194;107512;-74
2021/10/03 01:05:43;;;;;;;23.60;10.00;;;;;;;10.18;77.35;99376.55;113142;1195;98291;-75
2021/10/03 01:08:14;;;;;;;23.20;10.60;;;;;;;10.13;77.48;99373.36;113228;1200;97581;-75
2021/10/03 01:10:45;;;;;;;21.10;10.20;;;;;;;10.08;77.45;99373.83;113417;1196;112238;-75
2021/10/03 01:13:16;;;;;;;22.10;10.70;;;;;;;10.03;77.61;99371.99;113224;1195;95896;-75
2021/10/03 01:15:49;;;;;;;21.50;10.60;;;;;;;9.97;77.40;99369.77;113345;1196;107578;-77
2021/10/03 01:18:17;;;;;;;21.20;10.70;;;;;;;9.93;77.49;99368.64;113399;1196;97585;-78
2021/10/03 01:20:48;;;;;;;19.20;9.90;;;;;;;9.88;77.59;99370.20;113351;1194;96013;-75
2021/10/03 01:23:20;;;;;;;20.00;10.10;;;;;;;9.80;77.66;99369.77;113285;1196;111130;-73
2021/10/03 01:25:52;;;;;;;21.30;10.60;;;;;;;9.74;77.61;99367.33;113404;1195;97639;-76
2021/10/03 01:28:20;;;;;;;21.10;10.80;;;;;;;9.70;77.62;99372.23;113302;1195;107513;-75
2021/10/03 01:30:52;;;;;;;24.60;11.20;;;;;;;9.67;77.62;99370.80;112998;1195;97559;-74
2021/10/03 01:33:23;;;;;;;21.30;10.40;;;;;;;9.65;77.63;99373.60;113300;1195;95083;-75
2021/10/03 01:35:51;;;;;;;21.50;10.90;;;;;;;9.63;77.65;99375.27;113117;1196;111194;-74
2021/10/03 01:38:19;;;;;;;25.10;11.50;;;;;;;9.62;77.56;99378.17;113380;1196;96851;-75
2021/10/03 01:40:51;;;;;;;21.70;11.30;;;;;;;9.61;77.47;99380.22;113340;1196;107662;-75
2021/10/03 01:43:21;;;;;;;21.90;10.70;;;;;;;9.61;77.46;99380.56;113152;1195;98131;-76
2021/10/03 01:45:49;;;;;;;24.00;11.10;;;;;;;9.60;77.49;99381.83;113269;1196;95553;-76
2021/10/03 01:48:40;;;;;;;23.50;11.10;;;;;;;9.59;77.63;99376.28;113132;1196;111183;-75
2021/10/03 01:51:14;;;;;;;19.10;9.60;;;;;;;9.56;77.69;99375.77;113131;1196;97562;-73
2021/10/03 01:53:49;;;;;;;22.90;11.50;;;;;;;9.54;77.70;99378.01;113302;1196;107314;-75
2021/10/03 01:56:21;;;;;;;23.90;10.90;;;;;;;9.52;77.75;99374.95;112903;1195;97671;-71
2021/10/03 01:58:58;;;;;;;20.20;10.60;;;;;;;9.49;77.75;99372.83;113081;1195;97639;-74
2021/10/03 02:01:33;;;;;;;21.00;9.60;;;;;;;9.48;77.84;99374.14;113168;1194;111219;-74
2021/10/03 02:04:08;;;;;;;21.60;10.30;;;;;;;9.47;77.91;99371.00;113363;1196;97506;-71
2021/10/03 02:06:44;;;;;;;22.90;11.30;;;;;;;9.46;77.98;99368.26;113330;1195;107492;-73
2021/10/03 02:09:16;;;;;;;24.60;11.00;;;;;;;9.45;77.98;99364.06;113124;1195;97533;-74
2021/10/03 02:11:54;;;;;;;21.60;11.70;;;;;;;9.43;78.01;99362.05;113317;1196;97577;-71
2021/10/03 02:14:30;;;;;;;24.30;11.10;;;;;;;9.41;78.07;99362.53;113144;1196;110291;-73
2021/10/03 02:17:06;;;;;;;20.70;10.80;;;;;;;9.38;78.09;99360.19;113134;1195;96587;-72
2021/10/03 02:19:34;;;;;;;22.90;10.80;;;;;;;9.38;78.06;99363.38;113157;1194;107567;-74
2021/10/03 02:22:02;;;;;;;22.50;11.60;;;;;;;9.37;78.08;99361.30;113318;1196;97634;-73
2021/10/03 02:24:30;;;;;;;24.50;10.90;;;;;;;9.37;78.16;99362.95;113280;1195;95019;-74
2021/10/03 02:27:02;;;;;;;21.40;10.50;;;;;;;9.35;78.11;99365.36;113354;1196;111218;-76
2021/10/03 02:29:29;;;;;;;21.00;10.10;;;;;;;9.35;78.16;99368.20;113431;1194;97633;-76
2021/10/03 02:32:00;;;;;;;23.30;11.00;;;;;;;9.35;78.23;99365.04;113217;1195;107458;-76
2021/10/03 02:34:28;;;;;;;21.10;10.50;;;;;;;9.33;78.07;99365.49;113199;1195;98463;-79
2021/10/03 02:36:56;;;;;;;21.40;11.10;;;;;;;9.32;78.11;99364.88;113410;1196;97643;-76
2021/10/03 02:39:24;;;;;;;25.90;10.80;;;;;;;9.30;78.04;99364.27;113144;1196;111210;-75
2021/10/03 02:41:53;;;;;;;20.30;10.20;;;;;;;9.29;78.13;99366.63;113194;1195;97529;-76
2021/10/03 02:44:21;;;;;;;20.10;10.60;;;;;;;9.27;78.09;99359.85;113336;1196;107520;-76
2021/10/03 02:46:49;;;;;;;22.00;11.00;;;;;;;9.26;78.13;99362.74;113415;1195;97663;-77
2021/10/03 02:49:17;;;;;;;22.20;11.80;;;;;;;9.25;78.05;99362.46;113379;1195;97726;-76
2021/10/03 02:51:44;;;;;;;22.80;10.70;;;;;;;9.24;78.05;99363.05;113410;1196;112103;-75
2021/10/03 02:54:15;;;;;;;23.30;10.80;;;;;;;9.24;78.08;99361.30;113192;1195;97656;-75
2021/10/03 02:56:43;;;;;;;22.00;10.90;;;;;;;9.22;78.11;99363.19;113174;1195;108076;-76
2021/10/03 02:59:11;;;;;;;20.20;10.40;;;;;;;9.20;78.15;99363.27;113375;1195;97703;-73
2021/10/03 03:01:38;;;;;;;19.90;9.90;;;;;;;9.16;78.18;99362.45;113346;1196;96482;-78
2021/10/03 03:04:07;;;;;;;22.50;10.40;;;;;;;9.14;78.24;99365.27;113347;1195;110732;-75
2021/10/03 03:06:34;;;;;;;23.90;11.60;;;;;;;9.12;78.14;99359.52;113357;1196;98272;-74
2021/10/03 03:09:02;;;;;;;21.80;10.80;;;;;;;9.13;78.31;99360.55;113346;1194;106867;-76
2021/10/03 03:11:30;;;;;;;24.60;10.70;;;;;;;9.15;78.34;99354.23;113120;1195;97722;-75
2021/10/03 03:14:01;;;;;;;23.30;10.30;;;;;;;9.17;78.62;99354.50;113420;1195;97533;-76
2021/10/03 03:16:29;;;;;;;23.10;11.50;;;;;;;9.18;78.61;99350.30;113360;1195;111166;-76
2021/10/03 03:18:57;;;;;;;22.60;11.50;;;;;;;9.20;78.61;99352.48;113362;1195;95688;-75
2021/10/03 03:21:24;;;;;;;23.00;12.00;;;;;;;9.22;78.49;99352.38;113406;1195;107588;-75
2021/10/03 03:23:52;;;;;;;22.00;11.10;;;;;;;9.24;78.56;99352.42;113315;1195;95106;-75
2021/10/03 03:26:20;;;;;;;20.60;10.00;;;;;;;9.25;78.44;99354.67;113350;1195;97587;-75
2021/10/03 03:28:48;;;;;;;22.00;10.40;;;;;;;9.26;78.47;99348.60;113095;1195;111189;-74
2021/10/03 03:31:19;;;;;;;23.50;12.20;;;;;;;9.27;78.69;99347.45;113131;1195;97696;-75
2021/10/03 03:33:50;;;;;;;21.60;12.10;;;;;;;9.29;78.71;99347.17;113162;1196;107491;-74
2021/10/03 03:36:18;;;;;;;21.70;11.60;;;;;;;9.28;78.62;99344.77;113172;1195;97583;-74
2021/10/03 03:38:46;;;;;;;23.00;11.90;;;;;;;9.28;78.61;99342.79;113407;1194;98335;-74
2021/10/03 03:41:16;;;;;;;23.70;11.80;;;;;;;9.29;78.65;99344.02;113178;1195;111133;-74
2021/10/03 03:43:44;;;;;;;22.70;10.60;;;;;;;9.28;78.68;99341.02;113332;1195;96743;-73
2021/10/03 03:46:12;;;;;;;20.90;10.80;;;;;;;9.29;78.63;99343.96;113309;1179;107585;-73
2021/10/03 03:48:42;;;;;;;22.30;10.60;;;;;;;9.29;78.65;99340.80;113241;1196;97566;-74
2021/10/03 03:51:10;;;;;;;22.30;10.60;;;;;;;9.29;78.65;99339.77;113311;1196;95770;-73
2021/10/03 03:53:43;;;;;;;22.60;11.40;;;;;;;9.28;78.58;99340.17;113306;1194;111181;-75
2021/10/03 03:56:14;;;;;;;21.30;10.70;;;;;;;9.28;78.68;99341.38;113089;1196;97608;-76
2021/10/03 03:58:42;;;;;;;21.20;10.00;;;;;;;9.27;78.61;99340.56;113122;1195;107398;-76
2021/10/03 04:01:10;;;;;;;22.90;10.80;;;;;;;9.26;78.72;99340.98;113281;1196;97653;-76
2021/10/03 04:03:41;;;;;;;22.40;11.10;;;;;;;9.25;78.72;99340.00;113296;1195;95720;-76
2021/10/03 04:06:11;;;;;;;24.90;13.50;;;;;;;9.24;78.68;99339.17;113288;1196;111190;-75
2021/10/03 04:08:39;;;;;;;21.60;10.40;;;;;;;9.23;78.77;99338.31;113215;1196;97618;-74
2021/10/03 04:11:11;;;;;;;21.40;10.00;;;;;;;9.22;78.83;99336.05;113318;1195;108396;-73
2021/10/03 04:13:42;;;;;;;23.20;11.50;;;;;;;9.22;78.77;99334.85;113318;1195;97515;-73
2021/10/03 04:16:11;;;;;;;26.40;12.30;;;;;;;9.19;78.76;99329.54;113104;1196;97743;-73
2021/10/03 04:18:39;;;;;;;23.10;11.40;;;;;;;9.18;78.88;99331.73;113108;1196;111592;-73
2021/10/03 04:21:11;;;;;;;22.20;11.20;;;;;;;9.17;78.74;99331.98;113379;1195;97654;-72
2021/10/03 04:23:42;;;;;;;22.40;11.80;;;;;;;9.17;78.83;99331.09;113312;1194;107515;-71
2021/10/03 04:26:11;;;;;;;20.90;10.70;;;;;;;9.17;78.75;99335.86;113310;1195;96003;-71
2021/10/03 04:28:38;;;;;;;25.30;11.70;;;;;;;9.18;78.90;99335.85;113295;1195;97743;-74
2021/10/03 04:31:06;;;;;;;20.20;10.50;;;;;;;9.18;78.87;99333.86;113413;1196;111327;-74
2021/10/03 04:33:34;;;;;;;22.80;10.80;;;;;;;9.17;78.85;99334.47;113176;1195;97614;-73
2021/10/03 04:36:02;;;;;;;23.20;10.70;;;;;;;9.15;78.83;99327.89;113337;1196;107188;-73
2021/10/03 04:38:30;;;;;;;22.10;10.50;;;;;;;9.14;78.92;99331.50;113408;1194;96332;-75
2021/10/03 04:40:58;;;;;;;20.40;10.10;;;;;;;9.12;78.78;99328.39;113374;1195;97556;-74
2021/10/03 04:43:25;;;;;;;21.20;10.10;;;;;;;9.12;78.92;99331.95;113292;1195;111325;-73
2021/10/03 04:45:53;;;;;;;20.50;10.30;;;;;;;9.11;78.89;99333.26;113331;1196;97567;-74
2021/10/03 04:48:24;;;;;;;19.50;9.40;;;;;;;9.12;79.01;99334.80;113357;1195;107406;-73
2021/10/03 04:50:52;;;;;;;21.10;10.30;;;;;;;9.09;79.05;99332.98;113432;1195;97562;-73
2021/10/03 04:53:20;;;;;;;21.70;11.00;;;;;;;9.10;79.04;99331.73;113436;1195;97626;-72
2021/10/03 04:55:48;;;;;;;23.40;10.10;;;;;;;9.11;79.03;99334.31;113453;1194;111046;-74
2021/10/03 04:58:17;;;;;;;19.80;9.80;;;;;;;9.13;79.02;99337.00;113334;1195;98314;-74
2021/10/03 05:00:44;;;;;;;21.60;10.90;;;;;;;9.15;79.05;99331.91;113202;1196;107577;-74
2021/10/03 05:03:12;;;;;;;21.20;10.40;;;;;;;9.16;79.01;99329.21;113197;1196;97624;-75
2021/10/03 05:05:40;;;;;;;20.20;10.00;;;;;;;9.19;78.98;99330.09;113410;1196;97588;-73
2021/10/03 05:08:12;;;;;;;20.70;10.70;;;;;;;9.21;78.87;99328.52;113366;1196;111207;-73
2021/10/03 05:10:42;;;;;;;19.30;9.30;;;;;;;9.26;78.83;99330.55;113237;1195;95128;-73
2021/10/03 05:13:10;;;;;;;20.70;9.90;;;;;;;9.29;78.92;99331.92;113364;1196;107593;-74
2021/10/03 05:15:38;;;;;;;20.20;10.20;;;;;;;9.34;78.84;99334.67;113426;1194;96439;-75
2021/10/03 05:18:06;;;;;;;21.90;9.90;;;;;;;9.37;78.85;99335.16;113387;1196;97684;-73
2021/10/03 05:20:34;;;;;;;22.10;10.10;;;;;;;9.40;78.75;99337.60;113219;1195;111137;-74
2021/10/03 05:23:01;;;;;;;19.80;10.20;;;;;;;9.44;78.80;99337.22;113190;1195;97575;-73
2021/10/03 05:25:29;;;;;;;19.90;9.00;;;;;;;9.47;78.78;99338.23;113384;1195;107498;-71
2021/10/03 05:27:57;;;;;;;19.80;9.60;;;;;;;9.52;78.87;99342.36;113390;1196;97703;-73
2021/10/03 05:30:25;;;;;;;19.00;9.60;;;;;;;9.56;78.83;99342.30;113322;1194;97559;-72
2021/10/03 05:32:53;;;;;;;20.20;9.90;;;;;;;9.59;78.78;99342.80;113390;1195;111211;-73
2021/10/03 05:35:21;;;;;;;21.40;10.00;;;;;;;9.62;78.76;99340.46;113398;1195;95218;-75
2021/10/03 05:37:49;;;;;;;19.60;9.60;;;;;;;9.66;78.75;99335.61;113309;1195;107313;-73
2021/10/03 05:40:18;;;;;;;23.80;10.90;;;;;;;9.70;78.75;99337.49;113385;1196;98363;-74
2021/10/03 05:42:46;;;;;;;21.70;10.50;;;;;;;9.74;78.69;99332.80;113414;1196;95787;-76
2021/10/03 05:45:13;;;;;;;24.90;11.90;;;;;;;9.78;78.66;99336.94;113362;1195;111291;-77
2021/10/03 05:47:41;;;;;;;22.10;12.40;;;;;;;9.84;78.64;99332.90;113407;1195;97660;-77
2021/10/03 05:50:10;;;;;;;21.40;11.00;;;;;;;9.88;78.67;99334.91;113388;1195;108246;-74
2021/10/03 05:52:38;;;;;;;21.60;10.60;;;;;;;9.93;78.62;99337.21;113401;1194;95036;-74
2021/10/03 05:55:07;;;;;;;21.50;10.90;;;;;;;9.99;78.67;99332.40;113352;1194;97649;-72
2021/10/03 05:57:35;;;;;;;22.90;10.80;;;;;;;10.08;78.61;99336.64;113207;1195;111193;-73
2021/10/03 06:00:05;;;;;;;21.10;10.40;;;;;;;10.16;78.60;99331.52;113208;1195;97562;-74
2021/10/03 06:02:33;;;;;;;20.60;9.40;;;;;;;10.25;78.50;99331.25;113341;1195;107543;-77
2021/10/03 06:05:01;;;;;;;21.50;9.40;;;;;;;10.34;78.39;99331.19;113089;1196;97657;-72
2021/10/03 06:07:29;;;;;;;18.10;8.80;;;;;;;10.43;78.25;99331.31;113268;1195;97681;-72
2021/10/03 06:09:57;;;;;;;20.80;9.50;;;;;;;10.50;78.20;99333.67;113168;1195;111194;-76
2021/10/03 06:12:25;;;;;;;19.80;9.30;;;;;;;10.58;78.11;99333.36;113248;1196;97583;-71
2021/10/03 06:14:53;;;;;;;20.10;9.50;;;;;;;10.64;77.89;99338.04;113249;1195;107520;-76
2021/10/03 06:17:21;;;;;;;18.50;9.50;;;;;;;10.68;77.77;99337.92;113218;1195;97988;-74
2021/10/03 06:19:48;;;;;;;19.70;9.20;;;;;;;10.73;77.81;99335.48;112898;1195;97574;-74
2021/10/03 06:22:21;;;;;;;19.80;9.60;;;;;;;10.78;77.76;99337.29;113353;1193;110782;-74
2021/10/03 06:24:50;;;;;;;19.20;7.90;;;;;;;10.83;77.84;99338.67;113144;1195;97595;-72
2021/10/03 06:27:18;;;;;;;18.50;8.10;;;;;;;10.89;77.62;99334.91;113359;1196;106849;-72
2021/10/03 06:29:46;;;;;;;20.10;8.70;;;;;;;10.95;77.55;99333.61;113315;1193;97694;-72
2021/10/03 06:32:14;;;;;;;16.60;7.70;;;;;;;11.01;77.50;99331.92;113302;1195;97582;-74
2021/10/03 06:34:42;;;;;;;21.10;9.40;;;;;;;11.08;77.55;99331.33;113379;1193;111014;-72
2021/10/03 06:37:10;;;;;;;16.60;7.70;;;;;;;11.15;77.62;99332.63;113116;1195;98708;-75
2021/10/03 06:39:38;;;;;;;21.30;9.10;;;;;;;11.23;77.41;99333.79;113353;1195;107541;-75
2021/10/03 06:42:06;;;;;;;19.10;8.20;;;;;;;11.30;77.40;99339.13;113148;1195;97634;-78
2021/10/03 06:44:34;;;;;;;20.70;9.80;;;;;;;11.38;77.33;99342.14;113478;1193;97563;-73
2021/10/03 06:47:05;;;;;;;20.00;8.60;;;;;;;11.46;77.28;99347.76;113365;1195;111121;-73
2021/10/03 06:49:35;;;;;;;21.50;8.50;;;;;;;11.55;77.18;99345.17;113221;1195;97525;-74
2021/10/03 06:52:04;;;;;;;18.50;8.70;;;;;;;11.63;76.97;99343.21;113317;1195;106405;-75
2021/10/03 06:54:32;;;;;;;18.60;8.30;;;;;;;11.70;77.10;99341.44;113128;1195;97676;-75
2021/10/03 06:57:00;;;;;;;20.30;9.60;;;;;;;11.78;77.06;99342.50;113367;1196;97622;-75
2021/10/03 06:59:31;;;;;;;20.80;9.30;;;;;;;11.85;76.80;99340.87;113371;1194;111212;-74
2021/10/03 07:02:10;;;;;;;20.10;10.10;;;;;;;11.93;76.57;99345.83;113322;1196;97597;-71
2021/10/03 07:04:38;;;;;;;18.00;8.50;;;;;;;12.02;76.62;99341.13;113392;1194;108198;-73
2021/10/03 07:07:06;;;;;;;22.10;10.30;;;;;;;12.10;76.70;99342.48;113174;1195;95143;-76
2021/10/03 07:09:34;;;;;;;21.90;10.30;;;;;;;12.15;76.66;99341.36;113415;1195;97655;-73
2021/10/03 07:12:02;;;;;;;21.40;10.60;;;;;;;12.20;76.73;99342.95;113163;1195;111187;-73
2021/10/03 07:14:30;;;;;;;19.80;9.10;;;;;;;12.25;76.71;99339.05;113099;1195;95883;-75
2021/10/03 07:16:58;;;;;;;22.00;9.20;;;;;;;12.31;76.79;99336.98;113213;1195;107664;-76
2021/10/03 07:19:26;;;;;;;18.50;9.10;;;;;;;12.40;76.79;99334.35;113152;1196;97642;-76
2021/10/03 07:21:53;;;;;;;19.40;9.40;;;;;;;12.49;76.82;99332.30;113232;1195;97683;-75
2021/10/03 07:24:21;;;;;;;20.10;9.20;;;;;;;12.57;76.79;99326.67;113375;1195;111163;-80
2021/10/03 07:26:49;;;;;;;18.00;8.50;;;;;;;12.63;76.69;99328.55;113304;1195;96007;-76
2021/10/03 07:29:17;;;;;;;18.40;8.60;;;;;;;12.71;76.62;99332.55;113142;1195;107289;-74
2021/10/03 07:31:45;;;;;;;21.00;9.00;;;;;;;12.80;76.57;99335.95;113247;1195;98250;-75
2021/10/03 07:34:13;;;;;;;20.50;9.20;;;;;;;12.89;76.50;99336.14;113294;1195;97588;-76
2021/10/03 07:36:42;;;;;;;18.10;9.00;;;;;;;13.00;76.21;99334.58;113216;1194;111139;-77
2021/10/03 07:39:10;;;;;;;22.70;9.40;;;;;;;13.10;76.25;99334.88;113212;1195;95711;-76
2021/10/03 07:41:37;;;;;;;20.30;8.60;;;;;;;13.18;76.03;99330.16;113151;1195;107541;-71
2021/10/03 07:44:05;;;;;;;16.40;7.50;;;;;;;13.27;75.78;99331.19;113153;1195;95055;-75
2021/10/03 07:46:33;;;;;;;17.50;8.20;;;;;;;13.36;75.55;99329.95;113210;1195;94949;-77
2021/10/03 07:49:01;;;;;;;18.70;8.50;;;;;;;13.45;75.71;99323.02;113127;1196;111206;-76
2021/10/03 07:51:29;;;;;;;19.90;9.00;;;;;;;13.53;75.63;99322.03;113241;1193;97556;-76
2021/10/03 07:53:57;;;;;;;18.80;8.60;;;;;;;13.60;75.24;99323.83;113258;1195;107567;-78
2021/10/03 07:56:25;;;;;;;24.90;8.90;;;;;;;13.68;75.52;99315.14;113272;1193;97597;-78
2021/10/03 07:58:53;;;;;;;23.10;8.80;;;;;;;13.76;74.63;99320.02;113232;1195;97559;-78
2021/10/03 08:01:21;;;;;;;16.70;7.90;;;;;;;13.83;73.89;99318.58;113288;1193;111226;-76
2021/10/03 08:03:50;;;;;;;18.70;8.00;;;;;;;13.91;74.02;99313.48;113266;1193;97620;-75
2021/10/03 08:06:17;;;;;;;20.30;7.90;;;;;;;14.01;74.36;99312.81;113048;1195;107158;-75
2021/10/03 08:08:45;;;;;;;20.70;8.60;;;;;;;14.13;74.16;99312.90;113289;1193;97537;-76
2021/10/03 08:11:14;;;;;;;23.10;8.50;;;;;;;14.22;73.95;99309.27;113293;1193;97558;-75
2021/10/03 08:13:41;;;;;;;22.30;8.70;;;;;;;14.32;73.92;99305.60;113252;1194;111687;-74
2021/10/03 08:16:10;;;;;;;18.80;8.30;;;;;;;14.38;73.17;99309.00;113391;1193;97591;-74
2021/10/03 08:18:39;;;;;;;18.10;8.30;;;;;;;14.41;72.79;99314.09;113152;1194;107550;-74
2021/10/03 08:21:07;;;;;;;19.00;8.20;;;;;;;14.47;73.28;99311.11;113309;1193;97657;-75
2021/10/03 08:23:35;;;;;;;18.90;8.00;;;;;;;14.53;72.73;99318.61;113344;1193;96202;-76
2021/10/03 08:26:04;;;;;;;20.90;8.60;;;;;;;14.61;72.73;99316.88;113348;1195;111149;-75
2021/10/03 08:28:33;;;;;;;16.60;7.40;;;;;;;14.94;72.46;99316.28;113359;1187;96347;-74
2021/10/03 08:31:01;;;;;;;18.40;7.40;;;;;;;15.84;72.04;99319.83;113177;1195;107489;-76
2021/10/03 08:33:29;;;;;;;19.70;8.40;;;;;;;16.76;72.46;99320.11;113334;1193;97570;-73
2021/10/03 08:35:58;;;;;;;18.10;8.10;;;;;;;17.75;71.89;99319.13;113371;1193;97335;-75
2021/10/03 08:38:27;;;;;;;20.10;8.10;;;;;;;18.39;71.28;99320.32;113346;1194;111966;-73
2021/10/03 08:40:55;;;;;;;20.60;7.70;;;;;;;18.85;70.21;99326.26;113342;1193;97499;-73
2021/10/03 08:43:23;;;;;;;17.70;7.90;;;;;;;19.12;70.41;99321.70;113321;1194;107418;-76
2021/10/03 08:45:57;;;;;;;17.00;7.40;;;;;;;19.49;70.71;99322.55;113311;1193;97661;-75
2021/10/03 08:48:27;;;;;;;16.20;7.10;;;;;;;19.57;67.71;99323.44;113354;1195;97564;-73
2021/10/03 08:50:55;;;;;;;15.90;6.70;;;;;;;19.44;66.18;99320.11;113156;1195;111670;-75
2021/10/03 08:53:23;;;;;;;16.50;7.10;;;;;;;19.29;65.80;99320.98;113286;1195;97563;-73
2021/10/03 08:55:56;;;;;;;19.90;7.80;;;;;;;19.06;64.49;99322.48;113333;1193;108252;-73
2021/10/03 08:58:24;;;;;;;19.70;6.80;;;;;;;18.85;63.71;99319.56;113199;1193;95214;-74
2021/10/03 09:00:53;;;;;;;17.70;7.70;;;;;;;18.63;62.52;99319.86;113349;1193;97547;-75
2021/10/03 09:03:23;;;;;;;14.40;6.80;;;;;;;18.66;64.81;99322.80;113322;1193;111237;-72
2021/10/03 09:05:57;;;;;;;17.40;6.50;;;;;;;18.97;65.04;99322.35;113442;1193;97564;-77
2021/10/03 09:08:29;;;;;;;18.70;7.00;;;;;;;19.23;64.34;99324.52;113317;1195;106070;-72
2021/10/03 09:11:07;;;;;;;18.50;7.70;;;;;;;19.48;65.11;99328.02;113415;1193;97668;-74
2021/10/03 09:13:35;;;;;;;14.90;7.00;;;;;;;19.82;64.60;99330.48;113359;1194;97589;-72
2021/10/03 09:16:15;;;;;;;15.20;6.40;;;;;;;20.08;64.90;99328.88;113317;1194;111301;-72
2021/10/03 09:18:48;;;;;;;15.70;6.40;;;;;;;20.12;60.26;99328.73;113066;1195;95633;-72
2021/10/03 09:21:31;;;;;;;14.80;6.80;;;;;;;20.11;62.24;99326.77;113345;1193;107503;-71
2021/10/03 09:24:16;;;;;;;12.30;6.00;;;;;;;20.20;59.92;99328.51;113370;1193;97644;-72
2021/10/03 09:27:03;;;;;;;18.60;6.00;;;;;;;20.16;60.09;99322.60;114981;1194;95476;-72
2021/10/03 09:29:34;;;;;;;12.30;5.70;;;;;;;20.28;59.25;99333.20;114967;1193;112063;-72
2021/10/03 09:32:12;;;;;;;12.60;5.20;;;;;;;20.24;59.55;99327.66;114901;1193;96281;-72
2021/10/03 09:34:46;;;;;;;16.40;5.50;;;;;;;20.30;59.32;99328.31;114919;1193;108292;-71
2021/10/03 09:37:29;;;;;;;14.10;5.80;;;;;;;20.11;57.19;99336.67;114139;1193;97682;-71
2021/10/03 09:40:06;;;;;;;;;;;;;;;19.99;58.64;99327.27;113380;1193;98252;-70
2021/10/03 09:42:36;;;;;;;14.40;6.40;;;;;;;20.07;58.71;99326.64;113361;1193;111866;-70
2021/10/03 09:45:13;;;;;;;14.00;6.20;;;;;;;20.26;59.35;99334.69;113366;1187;95808;-71
2021/10/03 09:47:45;;;;;;;11.20;5.10;;;;;;;20.52;58.61;99334.93;113359;1193;107518;-72
2021/10/03 09:50:15;;;;;;;13.80;5.60;;;;;;;20.53;56.70;99334.59;113411;1187;97709;-70
2021/10/03 09:52:44;;;;;;;12.80;5.40;;;;;;;20.40;55.91;99335.09;113393;1193;97569;-72
2021/10/03 09:55:17;;;;;;;14.50;6.10;;;;;;;20.24;55.18;99331.45;113366;1193;111142;-71
2021/10/03 09:57:46;;;;;;;15.40;5.40;;;;;;;20.17;56.40;99329.84;113386;1193;97694;-70
2021/10/03 10:00:16;;;;;;;12.60;5.70;;;;;;;20.26;55.89;99331.55;113412;1195;107585;-71
2021/10/03 10:02:47;;;;;;;19.10;6.30;;;;;;;20.31;56.08;99333.88;113222;1195;97636;-71
2021/10/03 10:05:26;;;;;;;13.10;5.80;;;;;;;20.27;54.39;99330.94;113363;1193;97563;-74
2021/10/03 10:07:56;;;;;;;14.20;5.40;;;;;;;20.19;54.24;99328.01;113303;1195;111203;-76
2021/10/03 10:10:27;;;;;;;15.40;5.90;;;;;;;20.11;53.66;99331.75;113387;1186;95405;-73
2021/10/03 10:13:08;;;;;;;17.10;6.20;;;;;;;20.05;53.69;99321.78;113072;1195;107513;-77
2021/10/03 10:15:36;;;;;;;17.60;6.30;;;;;;;19.90;51.66;99317.48;113390;1193;97614;-73
2021/10/03 10:18:24;;;;;;;13.80;5.50;;;;;;;19.71;51.99;99320.58;113364;1194;96905;-73
2021/10/03 10:20:53;;;;;;;15.60;6.10;;;;;;;19.64;52.52;99319.81;113406;1193;111931;-75
2021/10/03 10:23:30;;;;;;;17.10;6.10;;;;;;;19.67;52.17;99319.48;113202;1195;97672;-75
2021/10/03 10:25:59;;;;;;;12.30;5.50;;;;;;;19.60;51.20;99315.20;113404;1193;107352;-73
2021/10/03 10:28:30;;;;;;;12.60;5.70;;;;;;;19.60;52.57;99307.52;113434;1196;97661;-74
2021/10/03 10:31:00;;;;;;;12.30;5.20;;;;;;;19.71;52.93;99305.77;113409;1193;95002;-72
2021/10/03 10:33:51;;;;;;;14.00;4.90;;;;;;;19.87;53.10;99302.33;113378;1194;111173;-73
2021/10/03 10:36:23;;;;;;;14.50;5.10;;;;;;;19.91;51.65;99301.17;113425;1193;97680;-74
2021/10/03 10:39:10;;;;;;;14.60;5.60;;;;;;;19.91;51.99;99308.57;113302;1195;107535;-72
2021/10/03 10:41:41;;;;;;;14.50;5.40;;;;;;;19.91;51.71;99301.98;113158;1193;97526;-75
2021/10/03 10:44:27;;;;;;;15.20;5.50;;;;;;;19.86;50.55;99303.44;113374;1193;97574;-74
2021/10/03 10:46:57;;;;;;;13.40;5.10;;;;;;;19.81;50.15;99307.64;113344;1193;111234;-73
2021/10/03 10:49:33;;;;;;;16.40;5.80;;;;;;;19.68;49.02;99308.79;113228;1195;98014;-75
2021/10/03 10:52:20;;;;;;;13.00;5.00;;;;;;;19.47;48.90;99304.79;113326;1193;107542;-74
2021/10/03 10:55:04;;;;;;;16.60;5.50;;;;;;;19.37;48.43;99296.84;113382;1194;97953;-75
2021/10/03 10:57:53;;;;;;;13.50;5.30;;;;;;;19.33;48.78;99298.47;113214;1195;94944;-74
2021/10/03 11:00:24;;;;;;;15.20;5.80;;;;;;;19.25;48.18;99289.94;113350;1194;111203;-73
2021/10/03 11:03:01;;;;;;;13.50;5.60;;;;;;;19.18;47.88;99294.32;113379;1195;97631;-73
2021/10/03 11:05:34;;;;;;;11.40;5.10;;;;;;;19.11;48.78;99282.08;113173;1195;107557;-73
2021/10/03 11:08:10;;;;;;;13.60;4.80;;;;;;;19.15;48.55;99279.49;113138;1195;98819;-75
2021/10/03 11:10:56;;;;;;;14.20;5.00;;;;;;;19.15;48.81;99277.34;113147;1196;97625;-74
2021/10/03 11:13:47;;;;;;;11.10;5.00;;;;;;;19.13;47.99;99272.47;113124;1195;111189;-74
2021/10/03 11:16:31;;;;;;;11.40;4.80;;;;;;;19.11;48.84;99273.30;113358;1194;98042;-72
2021/10/03 11:19:14;;;;;;;13.00;5.20;;;;;;;19.20;48.59;99280.20;113395;1194;108202;-74
2021/10/03 11:21:50;;;;;;;;;;;;;;;19.16;48.17;99281.20;113240;1195;96027;-75
2021/10/03 11:24:21;;;;;;;9.50;4.40;;;;;;;19.13;48.29;99275.54;113185;1195;97666;-74
2021/10/03 11:27:05;;;;;;;10.50;5.10;;;;;;;19.16;47.88;99273.79;113300;1195;111266;-73
2021/10/03 11:29:43;;;;;;;15.10;5.70;;;;;;;19.13;48.58;99274.13;113185;1195;97706;-73